»·PEaware :: SWA2355 KPHX-KPDX

SWA2355 :: KPHX-KPDX

FLIGHT INFORMATION

Flight Status: Arrived
Operator:
Southwest Airlines
More flights by this operator :: More flights under this callsign
Pilot: Anonymous 12234 (12234)
Aircraft: BOEING 737-300
(B733)
More flights by this aircraft type
Origin: KPHX Phoenix Sky Harbor Intl
United States
Destination: KPDX Portland Intl
United States
More flights between these airports :: More routes between these airports
Route: +ZEPER1 SISIE DOVEE BTY OAL J92 LMT MOXEE TMBRS2
File this flight plan on PilotEdge
Remarks:
Altitude:
(Current/Filed)
34,000ft
Speed:
(Current/Filed)
439kts
Departed: 29-Sep-18 09:52 AM
Arrived: 29-Sep-18 12:12 PM
Distance/Time
Traveled:
877nm/2:20
Distance/Time
To Go:
Arrived

Flight Plot

Page will automatically refresh every two minutes.

Flight plan parsing failed; only flown route is shown


Map Options




Map Legend


Flown Route
Filed Route
Departure Airport
Arrival Airport
Navaid (VOR, NDB)
Fix

Horizontal Profiles

Position Reports

Time Latitude Longitude Heading Altitude Ground
Speed
29-Sep-18 09:24 33.433688 -111.994827 82 1116ft 0kts
29-Sep-18 09:25 33.433688 -111.994827 82 1116ft 0kts
29-Sep-18 09:26 33.433688 -111.994827 82 1116ft 0kts
29-Sep-18 09:27 33.433688 -111.994827 82 1116ft 0kts
29-Sep-18 09:28 33.433688 -111.994827 82 1116ft 0kts
29-Sep-18 09:29 33.433688 -111.994827 82 1116ft 0kts
29-Sep-18 09:30 33.433688 -111.994827 82 1116ft 0kts
29-Sep-18 09:31 33.433688 -111.994827 82 1116ft 0kts
29-Sep-18 09:32 33.433688 -111.994827 82 1116ft 0kts
29-Sep-18 09:33 33.433688 -111.994827 82 1116ft 0kts
29-Sep-18 09:34 33.433688 -111.994827 82 1116ft 0kts
29-Sep-18 09:35 33.433688 -111.994827 82 1116ft 0kts
29-Sep-18 09:36 33.433688 -111.994827 82 1116ft 0kts
29-Sep-18 09:37 33.433688 -111.994827 82 1116ft 0kts
29-Sep-18 09:38 33.433688 -111.994827 82 1116ft 0kts
29-Sep-18 09:39 33.433688 -111.994827 82 1116ft 0kts
29-Sep-18 09:40 33.433688 -111.994827 82 1116ft 0kts
29-Sep-18 09:41 33.433688 -111.994827 83 1116ft 0kts
29-Sep-18 09:42 33.433843 -111.995343 149 1116ft 0kts
29-Sep-18 09:43 33.433402 -111.995303 180 1116ft 0kts
29-Sep-18 09:44 33.433402 -111.995303 180 1116ft 0kts
29-Sep-18 09:45 33.433402 -111.995303 180 1116ft 0kts
29-Sep-18 09:46 33.433402 -111.995303 180 1116ft 0kts
29-Sep-18 09:47 33.433223 -111.995327 192 1116ft 4kts
29-Sep-18 09:48 33.432146 -111.998251 270 1116ft 18kts
29-Sep-18 09:49 33.432148 -112.006494 270 1116ft 28kts
29-Sep-18 09:50 33.432160 -112.016148 270 1116ft 29kts
29-Sep-18 09:51 33.432167 -112.025580 270 1116ft 16kts
29-Sep-18 09:52 33.431823 -112.026939 190 1116ft 4kts
29-Sep-18 09:53 33.431053 -112.026717 93 1116ft 0kts
29-Sep-18 09:54 33.431053 -112.017321 90 1116ft 115kts
29-Sep-18 09:55 33.433583 -111.964271 85 2615ft 172kts
29-Sep-18 09:56 33.438358 -111.903745 90 3957ft 203kts
29-Sep-18 09:57 33.476778 -111.852834 7 5145ft 271kts
29-Sep-18 09:58 33.556542 -111.847377 3 7038ft 299kts
29-Sep-18 09:59 33.641238 -111.841101 2 9372ft 310kts
29-Sep-18 10:00 33.728846 -111.856650 324 11352ft 328kts
29-Sep-18 10:01 33.791077 -111.941466 296 13105ft 349kts
29-Sep-18 10:02 33.848893 -112.041259 302 15089ft 375kts
29-Sep-18 10:03 33.911555 -112.144233 303 17288ft 387kts
29-Sep-18 10:04 33.975170 -112.249819 302 19480ft 393kts
29-Sep-18 10:05 34.043881 -112.353285 315 21410ft 407kts
29-Sep-18 10:06 34.130965 -112.441014 316 23067ft 418kts
29-Sep-18 10:07 34.219122 -112.529774 319 24720ft 425kts
29-Sep-18 10:08 34.312765 -112.621166 317 25943ft 438kts
29-Sep-18 10:09 34.405986 -112.715675 316 27276ft 445kts
29-Sep-18 10:10 34.501108 -112.812259 317 28801ft 445kts
29-Sep-18 10:11 34.594060 -112.908954 314 30386ft 440kts
29-Sep-18 10:12 34.684522 -113.008128 315 31772ft 437kts
29-Sep-18 10:13 34.774588 -113.106603 315 32953ft 435kts
29-Sep-18 10:14 34.863707 -113.204337 315 33963ft 433kts
29-Sep-18 10:15 34.953524 -113.303138 314 34083ft 435kts
29-Sep-18 10:16 35.013185 -113.423351 287 34078ft 423kts
29-Sep-18 10:17 35.053185 -113.549777 288 34075ft 422kts
29-Sep-18 10:18 35.095861 -113.682347 287 34049ft 422kts
29-Sep-18 10:19 35.137718 -113.812136 287 34076ft 422kts
29-Sep-18 10:20 35.180220 -113.945180 287 34075ft 421kts
29-Sep-18 10:21 35.222649 -114.078640 287 34076ft 421kts
29-Sep-18 10:22 35.264900 -114.212137 287 34076ft 421kts
29-Sep-18 10:23 35.306815 -114.345174 287 34016ft 422kts
29-Sep-18 10:24 35.348088 -114.476761 286 33907ft 420kts
29-Sep-18 10:25 35.389408 -114.609104 286 33888ft 420kts
29-Sep-18 10:26 35.430362 -114.741043 285 33910ft 420kts
29-Sep-18 10:27 35.491746 -114.863643 306 33934ft 437kts
29-Sep-18 10:28 35.571891 -114.974490 305 33942ft 436kts
29-Sep-18 10:29 35.651426 -115.086322 305 33941ft 437kts
29-Sep-18 10:30 35.731128 -115.198758 304 33946ft 437kts
29-Sep-18 10:31 35.810753 -115.311463 304 33963ft 437kts
29-Sep-18 10:32 35.889942 -115.423927 304 33963ft 437kts
29-Sep-18 10:33 35.969168 -115.536812 304 33954ft 436kts
29-Sep-18 10:34 36.048217 -115.649828 304 33961ft 436kts
29-Sep-18 10:35 36.122373 -115.756249 304 33946ft 435kts
29-Sep-18 10:36 36.200906 -115.868992 304 33967ft 436kts
29-Sep-18 10:37 36.279734 -115.982801 304 33968ft 436kts
29-Sep-18 10:38 36.358351 -116.096690 304 33967ft 436kts
29-Sep-18 10:39 36.437022 -116.211057 304 33954ft 438kts
29-Sep-18 10:40 36.516251 -116.326610 304 33971ft 440kts
29-Sep-18 10:41 36.595241 -116.442224 304 33967ft 439kts
29-Sep-18 10:42 36.674091 -116.558032 304 33965ft 439kts
29-Sep-18 10:43 36.752081 -116.673020 303 33943ft 439kts
29-Sep-18 10:44 36.837462 -116.780163 320 33978ft 452kts
29-Sep-18 10:45 36.942368 -116.866172 319 33967ft 451kts
29-Sep-18 10:46 37.046457 -116.953414 319 33967ft 452kts
29-Sep-18 10:47 37.148965 -117.039412 318 33963ft 453kts
29-Sep-18 10:48 37.234973 -117.111875 318 33968ft 455kts
29-Sep-18 10:49 37.339215 -117.200064 318 33985ft 455kts
29-Sep-18 10:50 37.442785 -117.287988 318 34041ft 455kts
29-Sep-18 10:51 37.546136 -117.376024 318 34050ft 454kts
29-Sep-18 10:52 37.649579 -117.464428 318 34057ft 451kts
29-Sep-18 10:53 37.753369 -117.553463 318 34048ft 451kts
29-Sep-18 10:54 37.856159 -117.641921 318 34039ft 451kts
29-Sep-18 10:55 37.950878 -117.723944 317 34003ft 450kts
29-Sep-18 10:56 38.030962 -117.801906 307 34012ft 438kts
29-Sep-18 10:57 38.129376 -117.921350 308 34016ft 439kts
29-Sep-18 10:58 38.202417 -118.009276 308 34016ft 439kts
29-Sep-18 10:59 38.304994 -118.133059 308 34014ft 439kts
29-Sep-18 11:00 38.377921 -118.221361 308 33999ft 438kts
29-Sep-18 11:01 38.480705 -118.346273 308 34051ft 441kts
29-Sep-18 11:02 38.553910 -118.436134 308 34048ft 439kts
29-Sep-18 11:03 38.656950 -118.562391 308 34049ft 440kts
29-Sep-18 11:04 38.729837 -118.651903 307 34048ft 440kts
29-Sep-18 11:05 38.817193 -118.759777 307 34050ft 439kts
29-Sep-18 11:06 38.902739 -118.865563 306 34040ft 441kts
29-Sep-18 11:07 38.982948 -118.965196 305 33976ft 450kts
29-Sep-18 11:08 39.072661 -119.077688 305 33918ft 459kts
29-Sep-18 11:09 39.161337 -119.188049 305 33927ft 457kts
29-Sep-18 11:10 39.252338 -119.302354 304 33949ft 458kts
29-Sep-18 11:11 39.343270 -119.417209 305 33956ft 461kts
29-Sep-18 11:12 39.434327 -119.532410 304 33949ft 460kts
29-Sep-18 11:13 39.524519 -119.647162 306 33952ft 458kts
29-Sep-18 11:14 39.633990 -119.733909 320 33960ft 477kts
29-Sep-18 11:15 39.748001 -119.820085 319 33968ft 476kts
29-Sep-18 11:16 39.861736 -119.906568 319 33969ft 476kts
29-Sep-18 11:17 39.974810 -119.992882 319 33951ft 476kts
29-Sep-18 11:18 40.088404 -120.079935 319 33940ft 476kts
29-Sep-18 11:19 40.199677 -120.165265 319 33941ft 476kts
29-Sep-18 11:20 40.313371 -120.253070 319 33941ft 476kts
29-Sep-18 11:21 40.426975 -120.341676 319 33945ft 475kts
29-Sep-18 11:22 40.539434 -120.429649 319 33939ft 475kts
29-Sep-18 11:23 40.652748 -120.518218 319 33946ft 477kts
29-Sep-18 11:24 40.765738 -120.606881 319 33939ft 475kts
29-Sep-18 11:25 40.876141 -120.694047 318 33937ft 474kts
29-Sep-18 11:26 40.988261 -120.782823 319 33913ft 475kts
29-Sep-18 11:27 41.099677 -120.871286 320 33915ft 475kts
29-Sep-18 11:28 41.206760 -120.956379 320 33914ft 475kts
29-Sep-18 11:29 41.318119 -121.044894 321 33922ft 475kts
29-Sep-18 11:30 41.430991 -121.136206 321 33924ft 480kts
29-Sep-18 11:31 41.544482 -121.227939 321 33914ft 480kts
29-Sep-18 11:32 41.658145 -121.320208 321 33899ft 479kts
29-Sep-18 11:33 41.768351 -121.410041 321 33887ft 479kts
29-Sep-18 11:34 41.879935 -121.501373 321 33888ft 479kts
29-Sep-18 11:35 41.993181 -121.594449 321 33887ft 480kts
29-Sep-18 11:36 42.104968 -121.686861 320 33875ft 479kts
29-Sep-18 11:37 42.221698 -121.762689 334 33891ft 492kts
29-Sep-18 11:38 42.349292 -121.825049 333 33888ft 489kts
29-Sep-18 11:39 42.475646 -121.888241 333 33887ft 487kts
29-Sep-18 11:40 42.601450 -121.951403 333 33887ft 487kts
29-Sep-18 11:41 42.727353 -122.014884 333 33888ft 487kts
29-Sep-18 11:42 42.853348 -122.078686 333 33888ft 487kts
29-Sep-18 11:43 42.973937 -122.140007 337 33903ft 483kts
29-Sep-18 11:44 43.095424 -122.202035 339 33857ft 458kts
29-Sep-18 11:45 43.209346 -122.260301 339 33896ft 465kts
29-Sep-18 11:46 43.329052 -122.321933 339 33886ft 464kts
29-Sep-18 11:47 43.448036 -122.383451 339 33887ft 464kts
29-Sep-18 11:48 43.567098 -122.445269 339 33887ft 463kts
29-Sep-18 11:49 43.686290 -122.507417 339 33887ft 463kts
29-Sep-18 11:50 43.803862 -122.568981 339 33886ft 463kts
29-Sep-18 11:51 43.922873 -122.631562 339 33753ft 465kts
29-Sep-18 11:52 44.040347 -122.693857 339 32923ft 462kts
29-Sep-18 11:53 44.154975 -122.752372 351 32064ft 461kts
29-Sep-18 11:54 44.278257 -122.740800 5 30985ft 456kts
29-Sep-18 11:55 44.403419 -122.728162 5 27758ft 459kts
29-Sep-18 11:56 44.524985 -122.715739 4 25084ft 441kts
29-Sep-18 11:57 44.641642 -122.705462 6 22466ft 414kts
29-Sep-18 11:58 44.752644 -122.694511 2 19592ft 399kts
29-Sep-18 11:59 44.860045 -122.685389 5 16841ft 380kts
29-Sep-18 12:00 44.959594 -122.674261 4 14739ft 350kts
29-Sep-18 12:01 45.047862 -122.663828 5 13411ft 312kts
29-Sep-18 12:02 45.129172 -122.653963 4 11542ft 298kts
29-Sep-18 12:03 45.198975 -122.646822 2 9796ft 290kts
29-Sep-18 12:04 45.268854 -122.627938 28 8175ft 280kts
29-Sep-18 12:05 45.325670 -122.558970 53 6402ft 284kts
29-Sep-18 12:06 45.367870 -122.471801 54 5035ft 271kts
29-Sep-18 12:07 45.409904 -122.390406 53 3838ft 256kts
29-Sep-18 12:08 45.459759 -122.341925 335 3009ft 219kts
29-Sep-18 12:09 45.501188 -122.387324 305 2878ft 178kts
29-Sep-18 12:10 45.527190 -122.445628 297 2470ft 184kts
29-Sep-18 12:11 45.551629 -122.509451 297 1473ft 181kts
29-Sep-18 12:12 45.572956 -122.564448 298 369ft 146kts
29-Sep-18 12:13 45.589373 -122.606624 299 36ft 63kts
29-Sep-18 12:14 45.592797 -122.610634 120 36ft 18kts
29-Sep-18 12:15 45.591386 -122.604217 94 36ft 19kts
29-Sep-18 12:16 45.590956 -122.599286 196 36ft 7kts
29-Sep-18 12:17 45.590586 -122.599449 198 36ft 0kts
29-Sep-18 12:18 45.590586 -122.599449 198 36ft 0kts

Navigation Log

Ident Type
Flight plan parsing failed, navigation log unavailable